• Join FlightAware (Why Join?)
  • Login
  • US Flag 
06:08AM EST


 

Airport Tracker/Info


-or-


 

Live Flight TrackerFlight Track Log ✈ ABX601 ✈ 07-Aug-2013 ✈ KCVG - KMIA

Flight Track Log - Related Links

Times and Time Zones

All times are in EDT time to prevent confusion due to time zone crossing. See the ABX601 flight status page for this flight to view local times or setup timezone preferences in your user account.

Time Position Orientation Groundspeed Altitude Reporting Facility
EDT Latitude Longitude Course Direction KTS MPH feet Rate Location/Type
04:21AM 39.0500 -84.6833 270° West 163 188 1,300  Level Cincinnati TRACON
04:22AM 39.0500 -84.7500 270° West 194 223 3,000 1,800 Climbing Cincinnati TRACON
04:24AM 39.0264 -84.9089 259° West 241 277 6,800 2,220 Climbing Indianapolis Center
04:25AM 38.9606 -84.8914 168° South 279 321 9,500 2,160 Climbing Indianapolis Center
04:26AM 38.8897 -84.8361 149° Southeast 296 341 11,200 1,500 Climbing Indianapolis Center
04:27AM 38.8072 -84.7700 148° Southeast 350 403 12,500 1,680 Climbing Indianapolis Center
04:28AM 38.7172 -84.6983 148° Southeast 377 434 14,600 2,100 Climbing Indianapolis Center
04:29AM 38.6056 -84.6378 157° South 392 451 16,800 1,920 Climbing Indianapolis Center
04:30AM 38.4925 -84.6044 167° South 411 473 18,500 1,560 Climbing Indianapolis Center
04:31AM 38.3769 -84.5656 165° South 427 491 20,000 1,440 Climbing Indianapolis Center
04:32AM 38.2567 -84.5269 166° South 441 507 21,400 1,380 Climbing Indianapolis Center
04:33AM 38.1331 -84.4861 165° South 455 524 22,900 1,380 Climbing Indianapolis Center
04:34AM 38.0086 -84.4461 166° South 459 528 24,300 1,320 Climbing Indianapolis Center
04:35AM 37.8794 -84.4047 166° South 473 544 25,600 1,200 Climbing Indianapolis Center
04:36AM 37.7475 -84.3611 165° South 486 559 26,800 1,200 Climbing Indianapolis Center
04:37AM 37.6133 -84.3169 165° South 495 570 28,100 1,320 Climbing Indianapolis Center
04:38AM 37.4778 -84.2747 166° South 500 575 29,500 1,440 Climbing Indianapolis Center
04:39AM 37.3447 -84.2311 165° South 496 571 31,100 1,380 Climbing Indianapolis Center
04:40AM 37.2117 -84.1908 166° South 493 567 32,400 1,140 Climbing Indianapolis Center
04:41AM 37.0797 -84.1483 166° South 491 565 33,500 780 Climbing Indianapolis Center
04:42AM 36.9464 -84.1061 166° South 493 567 34,000 240 Climbing Indianapolis Center
04:43AM 36.8100 -84.0633 166° South 503 579 34,000 240 Level Indianapolis Center
04:44AM 36.6742 -84.0200 166° South 504 580 34,600 480 Climbing Indianapolis Center
04:45AM 36.5397 -83.9781 166° South 501 577 35,000 180 Climbing Indianapolis Center
04:46AM 36.3964 -83.9331 166° South 495 570 35,000  Level Indianapolis Center
04:47AM 36.2650 -83.8933 166° South 487 560 35,000  Level Indianapolis Center
04:48AM 36.1331 -83.8536 166° South 486 559 35,000  Level Indianapolis Center
04:49AM 35.9989 -83.8122 166° South 491 565 35,000  Level Indianapolis Center
04:50AM 35.8558 -83.7769 169° South 490 564 35,000  Level Indianapolis Center
04:51AM 35.7222 -83.7444 169° South 488 562 35,000  Level Indianapolis Center
04:52AM 35.5881 -83.7119 169° South 490 564 35,000  Level Indianapolis Center
04:54AM 35.4093 -83.6686 169° South  Level FlightAware Approximate
04:55AM 35.1353 -83.6044 169° South 488 562 35,000  Level Atlanta Center
04:56AM 34.9997 -83.5722 169° South 488 562 35,000  Level Atlanta Center
04:58AM 34.8668 -83.5198 162° South  Level Estimated
04:58AM 34.7386 -83.5106 162° South 482 555 35,000  Level Atlanta Center
04:59AM 34.6172 -83.4758 167° South 492 566 35,000  Level Atlanta Center
05:00AM 34.4858 -83.4467 170° South 492 566 35,000  Level Atlanta Center
05:01AM 34.5750 -83.4688 169° South  Level FlightAware Approximate
05:01AM 34.3519 -83.4147 169° South 487 560 35,000  Level Atlanta Center
05:03AM 34.2147 -83.3831 169° South  Level FlightAware Approximate
05:03AM 34.0783 -83.3517 169° South 497 572 35,000  Level Atlanta Center
05:05AM 33.9411 -83.3203 169° South  Level FlightAware Approximate
05:05AM 33.7961 -83.2889 169° South 497 572 35,000  Level Atlanta Center
05:07AM 33.6589 -83.2575 169° South  Level FlightAware Approximate
05:09AM 33.2608 -83.1669 169° South 492 566 35,000  Level Atlanta Center
05:10AM 33.1272 -83.1358 169° South 492 566 35,000  Level Atlanta Center
05:11AM 33.0081 -83.1075 169° South 492 566 35,000  Level Atlanta Center
05:12AM 32.8575 -83.0719 169° South 493 567 35,000  Level Atlanta Center
05:14AM 32.8235 -83.0684 169° South  Level FlightAware Approximate
05:14AM 32.6508 -83.0233 169° South 482 555 35,000  Level Jacksonville Center
05:15AM 32.7041 -83.0417 169° South  Level FlightAware Approximate
05:15AM 32.5131 -82.9936 170° South 489 563 35,000  Level Jacksonville Center
05:16AM 32.3775 -82.9614 169° South 500 575 35,000  Level Jacksonville Center
05:17AM 32.2417 -82.9319 170° South 500 575 35,000  Level Jacksonville Center
05:18AM 32.1039 -82.9000 169° South 500 575 35,000  Level Jacksonville Center
05:19AM 31.9556 -82.8656 169° South 506 582 35,000  Level Jacksonville Center
05:20AM 31.8200 -82.8364 170° South 500 575 35,000  Level Jacksonville Center
05:21AM 31.6842 -82.8047 169° South 500 575 35,000  Level Jacksonville Center
05:22AM 31.5483 -82.7756 170° South 505 581 35,000  Level Jacksonville Center
05:23AM 31.4128 -82.7464 170° South 500 575 35,000  Level Jacksonville Center
05:24AM 31.2833 -82.7200 170° South 500 575 35,000  Level Jacksonville Center
05:25AM 31.1494 -82.6911 170° South 488 562 35,000  Level Jacksonville Center
05:26AM 31.0158 -82.6672 171° South 483 556 35,000  Level Jacksonville Center
05:27AM 30.8842 -82.6383 169° South 483 556 35,000 -60 Level Jacksonville Center
05:28AM 30.7528 -82.6122 170° South 488 562 34,900  Descending Jacksonville Center
05:29AM 30.6211 -82.5908 172° South 483 556 35,000  Climbing Jacksonville Center
05:30AM 30.4875 -82.6008 184° South 483 556 35,000  Level Jacksonville Center
05:31AM 30.3644 -82.6083 183° South 483 556 35,000  Level Jacksonville Center
05:32AM 30.2328 -82.6186 184° South 483 556 35,000  Level Jacksonville Center
05:33AM 30.0950 -82.6261 183° South 483 556 35,000  Level Jacksonville Center
05:34AM 29.9511 -82.6289 181° South 478 550 35,000 -60 Level Jacksonville Center
05:35AM 29.8153 -82.6364 183° South 478 550 34,900  Descending Jacksonville Center
05:36AM 29.6775 -82.6439 183° South 487 560 35,000  Climbing Jacksonville Center
05:37AM 29.5522 -82.6561 185° South 493 567 35,000 -60 Level Jacksonville Center
05:38AM 29.4061 -82.6614 182° South 493 567 34,900  Descending Jacksonville Center
05:39AM 29.2683 -82.6664 182° South 493 567 35,000  Climbing Jacksonville Center
05:40AM 29.1347 -82.6739 183° South 493 567 34,900  Descending Jacksonville Center
05:41AM 28.9969 -82.6814 183° South 493 567 35,000  Climbing Jacksonville Center
05:43AM 28.7181 -82.6944 182° South 502 578 35,000  Level Miami Center
05:44AM 28.5672 -82.7078 184° South 502 578 35,000  Level Miami Center
05:45AM 28.4314 -82.7150 183° South 502 578 35,000  Level Miami Center
05:46AM 28.2958 -82.7197 182° South 502 578 35,000  Level Miami Center
05:47AM 28.1578 -82.7289 183° South 497 572 35,000 -60 Level Miami Center
05:48AM 28.0261 -82.7339 182° South 497 572 34,900  Descending Miami Center
05:49AM 27.8911 -82.7197 175° South 490 564 35,000  Climbing Miami Center
05:50AM 27.7639 -82.6686 160° South 490 564 35,000  Level Miami Center
05:51AM 27.6342 -82.6222 162° South 476 548 35,000  Level Miami Center
05:52AM 27.5089 -82.5714 160° South 481 554 35,000  Level Miami Center
05:53AM 27.3936 -82.5308 163° South 481 554 35,000  Level Miami Center
05:54AM 27.2664 -82.4825 161° South 481 554 35,000  Level Miami Center
05:55AM 27.1264 -82.4289 161° South 481 554 35,000  Level Miami Center
05:56AM 27.0008 -82.3881 164° South 478 550 35,000 -60 Level Miami Center
05:57AM 26.8672 -82.3328 160° South 489 563 34,900 -240 Descending Miami Center
05:58AM 26.7375 -82.2872 163° South 489 563 34,600 -960 Descending Miami Center
05:59AM 26.6078 -82.2372 161° South 494 568 33,000 -1,440 Descending Miami Center
06:00AM 26.5147 -82.1564 142° Southeast 469 540 31,800 -2,580 Descending Miami Center
06:01AM 26.4181 -82.0547 137° Southeast 469 540 27,900 -3,180 Descending Miami Center
06:02AM 26.3236 -81.9556 137° Southeast 469 540 25,500 -2,280 Descending Miami Center
06:03AM 26.2328 -81.8589 136° Southeast 464 534 23,400 -2,100 Descending Miami Center
06:04AM 26.1528 -81.7631 133° Southeast 447 514 21,400 -1,920 Descending Miami Center
06:05AM 26.1147 -81.6458 110° East 412 474 19,600 -1,800 Descending Miami Center
06:06AM 26.0767 -81.5311 110° East 401 461 17,800 -1,800 Descending Miami Center
06:07AM 26.0406 -81.4189 110° East 388 447 16,000 -1,800 Descending Miami Center
06:08AM 26.0064 -81.3133 110° East 379 436 14,200 -1,920 Descending Miami Center
06:09AM 25.9700 -81.2011 110° East 364 419 12,200 -1,800 Descending Miami Center
06:10AM 25.9369 -81.1144 113° Southeast 346 398 10,800 -1,080 Descending Miami Center
06:11AM 25.9061 -81.0233 111° Southeast 297 342 10,200 -600 Descending Miami Center
06:12AM 25.8731 -80.9439 115° Southeast 258 297 9,700 -840 Descending Miami Center
06:13AM 25.8394 -80.8758 119° Southeast 252 290 8,500 -1,140 Descending Miami Center
06:14AM 25.8036 -80.8075 120° Southeast 239 275 7,500 -1,140 Descending Miami Center
06:15AM 25.7778 -80.7536 118° Southeast 191 220 6,300 -1,260 Descending Miami Center
06:16AM 25.7647 -80.7025 106° East 166 191 5,000 -1,440 Descending Miami Center
06:17AM 25.7700 -80.6542 83° East 163 188 3,400 -1,020 Descending Miami Center
06:18AM 25.7714 -80.6014 88° East 161 185 3,000 -240 Descending Miami Center
06:19AM 25.7725 -80.5528 89° East 161 185 3,000  Level Miami Center
06:20AM 25.7761 -80.5022 85° East 161 185 3,000 -360 Level Miami Center
06:21AM 25.7772 -80.4514 89° East 161 185 2,300 -780 Descending Miami Center
06:22AM 25.7806 -80.4056 85° East 152 175 1,500 -780 Descending Miami Center
06:23AM 25.7794 -80.3617 92° East 142 163 800 -720 Descending Miami Center
06:24AM 25.7847 -80.3156 83° East 143 165 100 -720 Descending Miami Center
06:26AM 25.7833 -80.2833 20° North  Level FlightAware Approximate